sensor_id;sensor_type;location;lat;lon;timestamp;P1;durP1;ratioP1;P2;durP2;ratioP2
2618;SDS011;1319;52.346;13.096;2023-04-06T00:02:06;13.07;;;8.70;;
2618;SDS011;1319;52.346;13.096;2023-04-06T00:04:32;14.13;;;8.57;;
2618;SDS011;1319;52.346;13.096;2023-04-06T00:06:57;16.63;;;8.50;;
2618;SDS011;1319;52.346;13.096;2023-04-06T00:09:22;20.00;;;8.67;;
2618;SDS011;1319;52.346;13.096;2023-04-06T00:11:47;14.23;;;9.10;;
2618;SDS011;1319;52.346;13.096;2023-04-06T00:14:12;15.17;;;8.63;;
2618;SDS011;1319;52.346;13.096;2023-04-06T00:16:38;13.93;;;8.33;;
2618;SDS011;1319;52.346;13.096;2023-04-06T00:19:04;17.17;;;8.87;;
2618;SDS011;1319;52.346;13.096;2023-04-06T00:21:29;13.67;;;8.90;;
2618;SDS011;1319;52.346;13.096;2023-04-06T00:23:55;14.97;;;8.67;;
2618;SDS011;1319;52.346;13.096;2023-04-06T00:26:21;15.03;;;8.97;;
2618;SDS011;1319;52.346;13.096;2023-04-06T00:28:46;16.57;;;8.60;;
2618;SDS011;1319;52.346;13.096;2023-04-06T00:31:11;16.37;;;9.37;;
2618;SDS011;1319;52.346;13.096;2023-04-06T00:33:36;14.20;;;8.40;;
2618;SDS011;1319;52.346;13.096;2023-04-06T00:36:02;13.37;;;8.13;;
2618;SDS011;1319;52.346;13.096;2023-04-06T00:38:27;14.30;;;8.50;;
2618;SDS011;1319;52.346;13.096;2023-04-06T00:40:52;15.83;;;8.73;;
2618;SDS011;1319;52.346;13.096;2023-04-06T00:43:17;15.03;;;8.40;;
2618;SDS011;1319;52.346;13.096;2023-04-06T00:45:43;26.90;;;8.87;;
2618;SDS011;1319;52.346;13.096;2023-04-06T00:48:08;15.57;;;8.30;;
2618;SDS011;1319;52.346;13.096;2023-04-06T00:50:34;17.30;;;9.20;;
2618;SDS011;1319;52.346;13.096;2023-04-06T00:52:59;16.07;;;9.23;;
2618;SDS011;1319;52.346;13.096;2023-04-06T00:55:25;16.50;;;9.27;;
2618;SDS011;1319;52.346;13.096;2023-04-06T00:57:51;14.93;;;8.67;;
2618;SDS011;1319;52.346;13.096;2023-04-06T01:00:16;18.37;;;9.80;;
2618;SDS011;1319;52.346;13.096;2023-04-06T01:02:41;16.03;;;9.40;;
2618;SDS011;1319;52.346;13.096;2023-04-06T01:05:07;15.57;;;9.03;;
2618;SDS011;1319;52.346;13.096;2023-04-06T01:07:32;16.00;;;8.87;;
2618;SDS011;1319;52.346;13.096;2023-04-06T01:09:57;16.00;;;9.10;;
2618;SDS011;1319;52.346;13.096;2023-04-06T01:12:22;14.43;;;8.20;;
2618;SDS011;1319;52.346;13.096;2023-04-06T01:14:47;19.03;;;9.50;;
2618;SDS011;1319;52.346;13.096;2023-04-06T01:17:13;14.47;;;8.73;;
2618;SDS011;1319;52.346;13.096;2023-04-06T01:19:38;14.53;;;8.80;;
2618;SDS011;1319;52.346;13.096;2023-04-06T01:22:05;21.50;;;9.40;;
2618;SDS011;1319;52.346;13.096;2023-04-06T01:24:30;18.57;;;9.17;;
2618;SDS011;1319;52.346;13.096;2023-04-06T01:26:55;13.93;;;9.00;;
2618;SDS011;1319;52.346;13.096;2023-04-06T01:29:21;17.00;;;8.57;;
2618;SDS011;1319;52.346;13.096;2023-04-06T01:31:46;20.27;;;9.43;;
2618;SDS011;1319;52.346;13.096;2023-04-06T01:34:12;16.77;;;9.37;;
2618;SDS011;1319;52.346;13.096;2023-04-06T01:36:37;17.90;;;9.20;;
2618;SDS011;1319;52.346;13.096;2023-04-06T01:39:02;16.17;;;9.90;;
2618;SDS011;1319;52.346;13.096;2023-04-06T01:41:27;19.87;;;9.80;;
2618;SDS011;1319;52.346;13.096;2023-04-06T01:43:53;15.57;;;9.03;;
2618;SDS011;1319;52.346;13.096;2023-04-06T01:46:19;15.77;;;9.20;;
2618;SDS011;1319;52.346;13.096;2023-04-06T01:48:44;17.23;;;9.53;;
2618;SDS011;1319;52.346;13.096;2023-04-06T01:51:10;16.23;;;9.43;;
2618;SDS011;1319;52.346;13.096;2023-04-06T01:53:35;15.67;;;9.50;;
2618;SDS011;1319;52.346;13.096;2023-04-06T01:56:00;15.80;;;8.90;;
2618;SDS011;1319;52.346;13.096;2023-04-06T01:58:25;18.83;;;9.87;;
2618;SDS011;1319;52.346;13.096;2023-04-06T02:00:51;13.97;;;8.73;;
2618;SDS011;1319;52.346;13.096;2023-04-06T02:03:16;17.27;;;8.73;;
2618;SDS011;1319;52.346;13.096;2023-04-06T02:05:41;20.47;;;10.07;;
2618;SDS011;1319;52.346;13.096;2023-04-06T02:08:07;14.73;;;9.03;;
2618;SDS011;1319;52.346;13.096;2023-04-06T02:10:32;19.60;;;9.10;;
2618;SDS011;1319;52.346;13.096;2023-04-06T02:12:58;18.67;;;10.17;;
2618;SDS011;1319;52.346;13.096;2023-04-06T02:15:23;16.00;;;9.57;;
2618;SDS011;1319;52.346;13.096;2023-04-06T02:17:48;16.87;;;9.53;;
2618;SDS011;1319;52.346;13.096;2023-04-06T02:20:13;17.00;;;9.43;;
2618;SDS011;1319;52.346;13.096;2023-04-06T02:22:39;15.03;;;9.53;;
2618;SDS011;1319;52.346;13.096;2023-04-06T02:25:04;16.17;;;9.03;;
2618;SDS011;1319;52.346;13.096;2023-04-06T02:27:29;19.97;;;9.77;;
2618;SDS011;1319;52.346;13.096;2023-04-06T02:29:54;13.50;;;9.07;;
2618;SDS011;1319;52.346;13.096;2023-04-06T02:32:20;18.37;;;9.67;;
2618;SDS011;1319;52.346;13.096;2023-04-06T02:34:45;14.43;;;9.03;;
2618;SDS011;1319;52.346;13.096;2023-04-06T02:37:10;15.70;;;9.83;;
2618;SDS011;1319;52.346;13.096;2023-04-06T02:39:35;15.63;;;9.87;;
2618;SDS011;1319;52.346;13.096;2023-04-06T02:42:00;18.83;;;9.50;;
2618;SDS011;1319;52.346;13.096;2023-04-06T02:44:26;14.87;;;9.77;;
2618;SDS011;1319;52.346;13.096;2023-04-06T02:46:51;22.57;;;10.40;;
2618;SDS011;1319;52.346;13.096;2023-04-06T02:49:16;18.17;;;9.40;;
2618;SDS011;1319;52.346;13.096;2023-04-06T02:51:41;16.50;;;9.40;;
2618;SDS011;1319;52.346;13.096;2023-04-06T02:54:07;17.10;;;9.27;;
2618;SDS011;1319;52.346;13.096;2023-04-06T02:56:32;19.90;;;10.23;;
2618;SDS011;1319;52.346;13.096;2023-04-06T02:58:57;14.87;;;9.70;;
2618;SDS011;1319;52.346;13.096;2023-04-06T03:01:22;18.20;;;9.60;;
2618;SDS011;1319;52.346;13.096;2023-04-06T03:03:47;15.60;;;9.90;;
2618;SDS011;1319;52.346;13.096;2023-04-06T03:06:13;17.50;;;9.50;;
2618;SDS011;1319;52.346;13.096;2023-04-06T03:08:38;15.27;;;9.47;;
2618;SDS011;1319;52.346;13.096;2023-04-06T03:11:03;15.10;;;9.60;;
2618;SDS011;1319;52.346;13.096;2023-04-06T03:13:28;17.33;;;9.03;;
2618;SDS011;1319;52.346;13.096;2023-04-06T03:15:53;13.43;;;9.43;;
2618;SDS011;1319;52.346;13.096;2023-04-06T03:18:22;19.13;;;9.33;;
2618;SDS011;1319;52.346;13.096;2023-04-06T03:20:48;16.67;;;9.17;;
2618;SDS011;1319;52.346;13.096;2023-04-06T03:23:13;15.10;;;9.40;;
2618;SDS011;1319;52.346;13.096;2023-04-06T03:25:38;18.33;;;8.70;;
2618;SDS011;1319;52.346;13.096;2023-04-06T03:28:04;17.37;;;9.03;;
2618;SDS011;1319;52.346;13.096;2023-04-06T03:30:30;15.00;;;9.10;;
2618;SDS011;1319;52.346;13.096;2023-04-06T03:32:55;15.13;;;9.40;;
2618;SDS011;1319;52.346;13.096;2023-04-06T03:35:20;17.83;;;9.50;;
2618;SDS011;1319;52.346;13.096;2023-04-06T03:37:45;14.30;;;8.93;;
2618;SDS011;1319;52.346;13.096;2023-04-06T03:40:10;15.50;;;9.50;;
2618;SDS011;1319;52.346;13.096;2023-04-06T03:42:36;15.83;;;9.17;;
2618;SDS011;1319;52.346;13.096;2023-04-06T03:45:01;18.57;;;9.40;;
2618;SDS011;1319;52.346;13.096;2023-04-06T03:47:26;18.67;;;10.13;;
2618;SDS011;1319;52.346;13.096;2023-04-06T03:49:51;17.10;;;9.80;;
2618;SDS011;1319;52.346;13.096;2023-04-06T03:52:17;20.43;;;10.43;;
2618;SDS011;1319;52.346;13.096;2023-04-06T03:54:42;28.70;;;12.20;;
2618;SDS011;1319;52.346;13.096;2023-04-06T03:57:07;22.30;;;10.80;;
2618;SDS011;1319;52.346;13.096;2023-04-06T03:59:33;17.57;;;9.77;;
2618;SDS011;1319;52.346;13.096;2023-04-06T04:01:58;15.20;;;10.07;;
2618;SDS011;1319;52.346;13.096;2023-04-06T04:04:23;17.63;;;9.97;;
2618;SDS011;1319;52.346;13.096;2023-04-06T04:06:48;15.57;;;9.47;;
2618;SDS011;1319;52.346;13.096;2023-04-06T04:09:13;16.90;;;9.63;;
2618;SDS011;1319;52.346;13.096;2023-04-06T04:11:39;16.63;;;10.03;;
2618;SDS011;1319;52.346;13.096;2023-04-06T04:14:04;15.67;;;9.50;;
2618;SDS011;1319;52.346;13.096;2023-04-06T04:16:30;21.53;;;10.93;;
2618;SDS011;1319;52.346;13.096;2023-04-06T04:18:55;19.73;;;10.70;;
2618;SDS011;1319;52.346;13.096;2023-04-06T04:21:20;17.60;;;9.63;;
2618;SDS011;1319;52.346;13.096;2023-04-06T04:23:45;18.47;;;10.67;;
2618;SDS011;1319;52.346;13.096;2023-04-06T04:26:11;19.83;;;10.80;;
2618;SDS011;1319;52.346;13.096;2023-04-06T04:28:36;18.77;;;10.00;;
2618;SDS011;1319;52.346;13.096;2023-04-06T04:31:01;23.20;;;11.03;;
2618;SDS011;1319;52.346;13.096;2023-04-06T04:33:26;18.83;;;10.27;;
2618;SDS011;1319;52.346;13.096;2023-04-06T04:35:51;21.47;;;10.80;;
2618;SDS011;1319;52.346;13.096;2023-04-06T04:38:17;17.53;;;10.50;;
2618;SDS011;1319;52.346;13.096;2023-04-06T04:40:42;20.57;;;10.83;;
2618;SDS011;1319;52.346;13.096;2023-04-06T04:43:07;21.03;;;11.40;;
2618;SDS011;1319;52.346;13.096;2023-04-06T04:45:33;22.60;;;11.10;;
2618;SDS011;1319;52.346;13.096;2023-04-06T04:47:58;18.13;;;11.03;;
2618;SDS011;1319;52.346;13.096;2023-04-06T04:50:23;19.77;;;10.63;;
2618;SDS011;1319;52.346;13.096;2023-04-06T04:52:48;19.30;;;10.47;;
2618;SDS011;1319;52.346;13.096;2023-04-06T04:55:13;20.80;;;11.20;;
2618;SDS011;1319;52.346;13.096;2023-04-06T04:57:39;22.00;;;11.90;;
2618;SDS011;1319;52.346;13.096;2023-04-06T05:00:05;22.67;;;12.40;;
2618;SDS011;1319;52.346;13.096;2023-04-06T05:02:30;25.00;;;11.43;;
2618;SDS011;1319;52.346;13.096;2023-04-06T05:04:55;20.40;;;10.97;;
2618;SDS011;1319;52.346;13.096;2023-04-06T05:07:21;22.00;;;11.37;;
2618;SDS011;1319;52.346;13.096;2023-04-06T05:09:46;20.83;;;11.30;;
2618;SDS011;1319;52.346;13.096;2023-04-06T05:12:11;22.10;;;10.80;;
2618;SDS011;1319;52.346;13.096;2023-04-06T05:14:36;20.97;;;11.63;;
2618;SDS011;1319;52.346;13.096;2023-04-06T05:17:02;20.10;;;11.03;;
2618;SDS011;1319;52.346;13.096;2023-04-06T05:19:27;23.97;;;12.43;;
2618;SDS011;1319;52.346;13.096;2023-04-06T05:21:52;18.20;;;11.27;;
2618;SDS011;1319;52.346;13.096;2023-04-06T05:24:17;20.80;;;12.37;;
2618;SDS011;1319;52.346;13.096;2023-04-06T05:26:43;25.47;;;12.70;;
2618;SDS011;1319;52.346;13.096;2023-04-06T05:29:08;25.73;;;13.50;;
2618;SDS011;1319;52.346;13.096;2023-04-06T05:31:33;26.50;;;12.00;;
2618;SDS011;1319;52.346;13.096;2023-04-06T05:33:58;24.23;;;12.80;;
2618;SDS011;1319;52.346;13.096;2023-04-06T05:36:24;23.17;;;12.90;;
2618;SDS011;1319;52.346;13.096;2023-04-06T05:38:49;26.33;;;14.00;;
2618;SDS011;1319;52.346;13.096;2023-04-06T05:41:17;26.70;;;13.93;;
2618;SDS011;1319;52.346;13.096;2023-04-06T05:43:42;25.47;;;13.83;;
2618;SDS011;1319;52.346;13.096;2023-04-06T05:46:08;26.83;;;13.70;;
2618;SDS011;1319;52.346;13.096;2023-04-06T05:48:33;27.63;;;13.60;;
2618;SDS011;1319;52.346;13.096;2023-04-06T05:50:58;24.67;;;14.10;;
2618;SDS011;1319;52.346;13.096;2023-04-06T05:53:24;26.37;;;14.10;;
2618;SDS011;1319;52.346;13.096;2023-04-06T05:55:51;28.53;;;13.97;;
2618;SDS011;1319;52.346;13.096;2023-04-06T05:58:16;24.00;;;14.27;;
2618;SDS011;1319;52.346;13.096;2023-04-06T06:00:42;27.27;;;14.70;;
2618;SDS011;1319;52.346;13.096;2023-04-06T06:03:07;25.03;;;14.23;;
2618;SDS011;1319;52.346;13.096;2023-04-06T06:05:33;27.37;;;14.63;;
2618;SDS011;1319;52.346;13.096;2023-04-06T06:07:58;29.20;;;14.60;;
2618;SDS011;1319;52.346;13.096;2023-04-06T06:10:26;24.53;;;14.10;;
2618;SDS011;1319;52.346;13.096;2023-04-06T06:12:52;25.63;;;14.23;;
2618;SDS011;1319;52.346;13.096;2023-04-06T06:15:17;23.03;;;14.40;;
2618;SDS011;1319;52.346;13.096;2023-04-06T06:17:42;25.57;;;15.33;;
2618;SDS011;1319;52.346;13.096;2023-04-06T06:20:07;23.90;;;14.23;;
2618;SDS011;1319;52.346;13.096;2023-04-06T06:22:33;28.43;;;13.93;;
2618;SDS011;1319;52.346;13.096;2023-04-06T06:24:58;23.90;;;13.90;;
2618;SDS011;1319;52.346;13.096;2023-04-06T06:27:23;23.03;;;12.53;;
2618;SDS011;1319;52.346;13.096;2023-04-06T06:29:48;22.40;;;13.10;;
2618;SDS011;1319;52.346;13.096;2023-04-06T06:32:13;23.00;;;12.50;;
2618;SDS011;1319;52.346;13.096;2023-04-06T06:34:39;22.50;;;13.20;;
2618;SDS011;1319;52.346;13.096;2023-04-06T06:37:05;18.83;;;11.40;;
2618;SDS011;1319;52.346;13.096;2023-04-06T06:39:30;17.53;;;11.60;;
2618;SDS011;1319;52.346;13.096;2023-04-06T06:41:55;15.00;;;10.27;;
2618;SDS011;1319;52.346;13.096;2023-04-06T06:44:21;15.13;;;9.70;;
2618;SDS011;1319;52.346;13.096;2023-04-06T06:46:46;13.50;;;9.60;;
2618;SDS011;1319;52.346;13.096;2023-04-06T06:49:12;13.63;;;9.57;;
2618;SDS011;1319;52.346;13.096;2023-04-06T06:51:37;16.47;;;9.10;;
2618;SDS011;1319;52.346;13.096;2023-04-06T06:54:02;14.67;;;8.63;;
2618;SDS011;1319;52.346;13.096;2023-04-06T06:56:27;10.47;;;8.00;;
2618;SDS011;1319;52.346;13.096;2023-04-06T06:58:53;13.90;;;8.70;;
2618;SDS011;1319;52.346;13.096;2023-04-06T07:01:18;13.47;;;8.13;;
2618;SDS011;1319;52.346;13.096;2023-04-06T07:03:43;15.10;;;8.37;;
2618;SDS011;1319;52.346;13.096;2023-04-06T07:06:08;15.17;;;8.57;;
2618;SDS011;1319;52.346;13.096;2023-04-06T07:08:33;16.43;;;8.60;;
2618;SDS011;1319;52.346;13.096;2023-04-06T07:10:59;14.87;;;9.40;;
2618;SDS011;1319;52.346;13.096;2023-04-06T07:13:24;16.63;;;9.03;;
2618;SDS011;1319;52.346;13.096;2023-04-06T07:15:51;15.93;;;8.10;;
2618;SDS011;1319;52.346;13.096;2023-04-06T07:18:17;14.33;;;8.23;;
2618;SDS011;1319;52.346;13.096;2023-04-06T07:20:43;11.67;;;8.33;;
2618;SDS011;1319;52.346;13.096;2023-04-06T07:23:08;14.00;;;7.90;;
2618;SDS011;1319;52.346;13.096;2023-04-06T07:25:33;14.30;;;8.27;;
2618;SDS011;1319;52.346;13.096;2023-04-06T07:27:58;12.83;;;7.73;;
2618;SDS011;1319;52.346;13.096;2023-04-06T07:30:24;15.37;;;8.10;;
2618;SDS011;1319;52.346;13.096;2023-04-06T07:32:51;13.50;;;8.20;;
2618;SDS011;1319;52.346;13.096;2023-04-06T07:35:16;14.60;;;7.90;;
2618;SDS011;1319;52.346;13.096;2023-04-06T07:37:41;14.10;;;7.87;;
2618;SDS011;1319;52.346;13.096;2023-04-06T07:40:07;10.67;;;7.70;;
2618;SDS011;1319;52.346;13.096;2023-04-06T07:42:33;11.97;;;8.03;;
2618;SDS011;1319;52.346;13.096;2023-04-06T07:44:58;11.93;;;8.10;;
2618;SDS011;1319;52.346;13.096;2023-04-06T07:47:23;13.27;;;7.80;;
2618;SDS011;1319;52.346;13.096;2023-04-06T07:49:48;10.60;;;7.97;;
2618;SDS011;1319;52.346;13.096;2023-04-06T07:52:14;11.50;;;7.93;;
2618;SDS011;1319;52.346;13.096;2023-04-06T07:54:40;15.40;;;7.80;;
2618;SDS011;1319;52.346;13.096;2023-04-06T07:57:05;10.93;;;7.80;;
2618;SDS011;1319;52.346;13.096;2023-04-06T07:59:30;11.00;;;8.00;;
2618;SDS011;1319;52.346;13.096;2023-04-06T08:01:55;10.83;;;7.93;;
2618;SDS011;1319;52.346;13.096;2023-04-06T08:04:21;14.43;;;8.77;;
2618;SDS011;1319;52.346;13.096;2023-04-06T08:06:46;12.07;;;8.47;;
2618;SDS011;1319;52.346;13.096;2023-04-06T08:09:11;11.43;;;8.90;;
2618;SDS011;1319;52.346;13.096;2023-04-06T08:11:37;13.10;;;8.10;;
2618;SDS011;1319;52.346;13.096;2023-04-06T08:14:02;19.03;;;9.10;;
2618;SDS011;1319;52.346;13.096;2023-04-06T08:16:27;12.83;;;8.43;;
2618;SDS011;1319;52.346;13.096;2023-04-06T08:18:52;10.33;;;7.90;;
2618;SDS011;1319;52.346;13.096;2023-04-06T08:21:17;11.60;;;7.33;;
2618;SDS011;1319;52.346;13.096;2023-04-06T08:23:43;12.40;;;7.37;;
2618;SDS011;1319;52.346;13.096;2023-04-06T08:26:08;11.60;;;7.80;;
2618;SDS011;1319;52.346;13.096;2023-04-06T08:28:34;27.37;;;7.70;;
2618;SDS011;1319;52.346;13.096;2023-04-06T08:31:03;8.47;;;6.93;;
2618;SDS011;1319;52.346;13.096;2023-04-06T08:33:28;10.30;;;6.80;;
2618;SDS011;1319;52.346;13.096;2023-04-06T08:35:53;7.73;;;5.83;;
2618;SDS011;1319;52.346;13.096;2023-04-06T08:38:18;6.83;;;4.57;;
2618;SDS011;1319;52.346;13.096;2023-04-06T08:40:43;7.70;;;4.83;;
2618;SDS011;1319;52.346;13.096;2023-04-06T08:43:11;4.93;;;4.13;;
2618;SDS011;1319;52.346;13.096;2023-04-06T08:45:38;6.83;;;4.13;;
2618;SDS011;1319;52.346;13.096;2023-04-06T08:48:03;5.43;;;3.90;;
2618;SDS011;1319;52.346;13.096;2023-04-06T08:50:32;5.70;;;3.40;;
2618;SDS011;1319;52.346;13.096;2023-04-06T08:52:57;4.13;;;3.30;;
2618;SDS011;1319;52.346;13.096;2023-04-06T08:55:24;4.47;;;3.10;;
2618;SDS011;1319;52.346;13.096;2023-04-06T08:57:49;6.33;;;3.70;;
2618;SDS011;1319;52.346;13.096;2023-04-06T09:00:15;6.10;;;3.77;;
2618;SDS011;1319;52.346;13.096;2023-04-06T09:02:43;3.93;;;3.60;;
2618;SDS011;1319;52.346;13.096;2023-04-06T09:05:08;15.93;;;4.10;;
2618;SDS011;1319;52.346;13.096;2023-04-06T09:07:35;5.20;;;3.70;;
2618;SDS011;1319;52.346;13.096;2023-04-06T09:10:00;8.60;;;3.90;;
2618;SDS011;1319;52.346;13.096;2023-04-06T09:12:29;3.13;;;2.83;;
2618;SDS011;1319;52.346;13.096;2023-04-06T09:14:55;5.37;;;2.50;;
2618;SDS011;1319;52.346;13.096;2023-04-06T09:17:21;3.47;;;2.83;;
2618;SDS011;1319;52.346;13.096;2023-04-06T09:19:47;3.97;;;3.43;;
2618;SDS011;1319;52.346;13.096;2023-04-06T09:22:13;4.00;;;3.60;;
2618;SDS011;1319;52.346;13.096;2023-04-06T09:27:06;6.17;;;3.90;;
2618;SDS011;1319;52.346;13.096;2023-04-06T09:29:32;5.53;;;4.10;;
2618;SDS011;1319;52.346;13.096;2023-04-06T09:32:06;5.03;;;4.00;;
2618;SDS011;1319;52.346;13.096;2023-04-06T09:34:32;4.87;;;3.50;;
2618;SDS011;1319;52.346;13.096;2023-04-06T09:36:58;8.23;;;4.23;;
2618;SDS011;1319;52.346;13.096;2023-04-06T09:39:23;4.93;;;3.93;;
2618;SDS011;1319;52.346;13.096;2023-04-06T09:41:52;4.63;;;4.20;;
2618;SDS011;1319;52.346;13.096;2023-04-06T09:44:17;4.33;;;3.90;;
2618;SDS011;1319;52.346;13.096;2023-04-06T09:46:44;5.77;;;4.13;;
2618;SDS011;1319;52.346;13.096;2023-04-06T09:49:10;4.30;;;3.50;;
2618;SDS011;1319;52.346;13.096;2023-04-06T09:51:36;3.57;;;3.27;;
2618;SDS011;1319;52.346;13.096;2023-04-06T09:54:01;3.73;;;3.17;;
2618;SDS011;1319;52.346;13.096;2023-04-06T09:56:31;4.33;;;3.60;;
2618;SDS011;1319;52.346;13.096;2023-04-06T09:59:01;4.73;;;3.63;;
2618;SDS011;1319;52.346;13.096;2023-04-06T10:01:28;4.47;;;3.40;;
2618;SDS011;1319;52.346;13.096;2023-04-06T10:06:20;6.93;;;3.53;;
2618;SDS011;1319;52.346;13.096;2023-04-06T10:08:46;8.33;;;3.80;;
2618;SDS011;1319;52.346;13.096;2023-04-06T10:11:12;4.93;;;3.50;;
2618;SDS011;1319;52.346;13.096;2023-04-06T10:13:37;4.17;;;3.40;;
2618;SDS011;1319;52.346;13.096;2023-04-06T10:16:03;4.43;;;3.67;;
2618;SDS011;1319;52.346;13.096;2023-04-06T10:18:28;5.87;;;3.20;;
2618;SDS011;1319;52.346;13.096;2023-04-06T10:21:00;3.33;;;3.10;;
2618;SDS011;1319;52.346;13.096;2023-04-06T10:23:43;7.63;;;3.40;;
2618;SDS011;1319;52.346;13.096;2023-04-06T10:26:13;3.57;;;3.27;;
2618;SDS011;1319;52.346;13.096;2023-04-06T10:28:40;4.40;;;4.00;;
2618;SDS011;1319;52.346;13.096;2023-04-06T10:31:06;5.47;;;3.87;;
2618;SDS011;1319;52.346;13.096;2023-04-06T10:33:31;6.03;;;3.20;;
2618;SDS011;1319;52.346;13.096;2023-04-06T10:35:57;4.03;;;3.40;;
2618;SDS011;1319;52.346;13.096;2023-04-06T10:38:34;3.57;;;3.20;;
2618;SDS011;1319;52.346;13.096;2023-04-06T10:41:06;4.43;;;3.50;;
2618;SDS011;1319;52.346;13.096;2023-04-06T10:43:34;5.07;;;3.30;;
2618;SDS011;1319;52.346;13.096;2023-04-06T10:46:00;5.17;;;3.47;;
2618;SDS011;1319;52.346;13.096;2023-04-06T10:48:36;3.90;;;3.57;;
2618;SDS011;1319;52.346;13.096;2023-04-06T10:51:01;4.60;;;3.70;;
2618;SDS011;1319;52.346;13.096;2023-04-06T10:53:32;4.33;;;3.37;;
2618;SDS011;1319;52.346;13.096;2023-04-06T10:55:58;3.97;;;3.27;;
2618;SDS011;1319;52.346;13.096;2023-04-06T10:58:26;3.00;;;2.70;;
2618;SDS011;1319;52.346;13.096;2023-04-06T11:00:51;6.73;;;3.20;;
2618;SDS011;1319;52.346;13.096;2023-04-06T11:03:17;3.50;;;3.00;;
2618;SDS011;1319;52.346;13.096;2023-04-06T11:05:46;3.40;;;2.70;;
2618;SDS011;1319;52.346;13.096;2023-04-06T11:08:27;5.00;;;3.10;;
2618;SDS011;1319;52.346;13.096;2023-04-06T11:13:37;3.10;;;2.80;;
2618;SDS011;1319;52.346;13.096;2023-04-06T11:16:03;3.20;;;2.92;;
2618;SDS011;1319;52.346;13.096;2023-04-06T11:18:28;3.85;;;3.38;;
2618;SDS011;1319;52.346;13.096;2023-04-06T11:20:54;5.28;;;3.72;;
2618;SDS011;1319;52.346;13.096;2023-04-06T11:23:28;6.43;;;3.50;;
2618;SDS011;1319;52.346;13.096;2023-04-06T11:25:53;3.65;;;3.33;;
2618;SDS011;1319;52.346;13.096;2023-04-06T11:28:19;4.72;;;3.30;;
2618;SDS011;1319;52.346;13.096;2023-04-06T11:30:45;3.97;;;3.38;;
2618;SDS011;1319;52.346;13.096;2023-04-06T11:33:10;3.95;;;3.28;;
2618;SDS011;1319;52.346;13.096;2023-04-06T11:35:35;3.00;;;2.80;;
2618;SDS011;1319;52.346;13.096;2023-04-06T11:38:05;4.70;;;3.78;;
2618;SDS011;1319;52.346;13.096;2023-04-06T11:40:30;4.15;;;3.85;;
2618;SDS011;1319;52.346;13.096;2023-04-06T11:42:58;4.35;;;3.95;;
2618;SDS011;1319;52.346;13.096;2023-04-06T11:45:23;4.65;;;3.90;;
2618;SDS011;1319;52.346;13.096;2023-04-06T11:47:55;3.88;;;3.50;;
2618;SDS011;1319;52.346;13.096;2023-04-06T11:50:20;4.30;;;3.90;;
2618;SDS011;1319;52.346;13.096;2023-04-06T11:52:46;4.55;;;3.83;;
2618;SDS011;1319;52.346;13.096;2023-04-06T11:55:22;4.55;;;3.45;;
2618;SDS011;1319;52.346;13.096;2023-04-06T11:57:47;4.22;;;3.65;;
2618;SDS011;1319;52.346;13.096;2023-04-06T12:00:14;5.15;;;3.63;;
2618;SDS011;1319;52.346;13.096;2023-04-06T12:02:39;4.70;;;3.35;;
2618;SDS011;1319;52.346;13.096;2023-04-06T12:05:05;4.00;;;3.30;;
2618;SDS011;1319;52.346;13.096;2023-04-06T12:07:30;4.88;;;3.60;;
2618;SDS011;1319;52.346;13.096;2023-04-06T12:09:56;3.78;;;3.30;;
2618;SDS011;1319;52.346;13.096;2023-04-06T12:12:21;5.28;;;3.60;;
2618;SDS011;1319;52.346;13.096;2023-04-06T12:14:46;4.75;;;3.70;;
2618;SDS011;1319;52.346;13.096;2023-04-06T12:17:11;8.98;;;3.25;;
2618;SDS011;1319;52.346;13.096;2023-04-06T12:19:37;6.22;;;3.60;;
2618;SDS011;1319;52.346;13.096;2023-04-06T12:22:02;4.32;;;3.47;;
2618;SDS011;1319;52.346;13.096;2023-04-06T12:24:27;7.25;;;3.80;;
2618;SDS011;1319;52.346;13.096;2023-04-06T12:26:52;5.17;;;3.83;;
2618;SDS011;1319;52.346;13.096;2023-04-06T12:29:18;4.63;;;3.90;;
2618;SDS011;1319;52.346;13.096;2023-04-06T12:31:43;5.23;;;3.97;;
2618;SDS011;1319;52.346;13.096;2023-04-06T12:34:09;5.43;;;4.10;;
2618;SDS011;1319;52.346;13.096;2023-04-06T12:36:36;5.07;;;3.50;;
2618;SDS011;1319;52.346;13.096;2023-04-06T12:39:01;4.30;;;3.13;;
2618;SDS011;1319;52.346;13.096;2023-04-06T12:41:27;3.03;;;2.77;;
2618;SDS011;1319;52.346;13.096;2023-04-06T12:43:52;3.70;;;3.10;;
2618;SDS011;1319;52.346;13.096;2023-04-06T12:46:18;3.40;;;3.10;;
2618;SDS011;1319;52.346;13.096;2023-04-06T12:48:43;4.73;;;3.17;;
2618;SDS011;1319;52.346;13.096;2023-04-06T12:51:08;4.60;;;3.50;;
2618;SDS011;1319;52.346;13.096;2023-04-06T12:53:34;5.57;;;4.13;;
2618;SDS011;1319;52.346;13.096;2023-04-06T12:56:00;4.53;;;4.03;;
2618;SDS011;1319;52.346;13.096;2023-04-06T12:58:25;4.90;;;3.87;;
2618;SDS011;1319;52.346;13.096;2023-04-06T13:00:54;6.80;;;4.33;;
2618;SDS011;1319;52.346;13.096;2023-04-06T13:03:20;4.87;;;3.80;;
2618;SDS011;1319;52.346;13.096;2023-04-06T13:05:47;4.53;;;4.13;;
2618;SDS011;1319;52.346;13.096;2023-04-06T13:08:13;3.88;;;3.58;;
2618;SDS011;1319;52.346;13.096;2023-04-06T13:10:42;5.47;;;3.67;;
2618;SDS011;1319;52.346;13.096;2023-04-06T13:13:08;4.13;;;3.72;;
2618;SDS011;1319;52.346;13.096;2023-04-06T13:15:33;4.00;;;3.70;;
2618;SDS011;1319;52.346;13.096;2023-04-06T13:17:59;4.20;;;3.90;;
2618;SDS011;1319;52.346;13.096;2023-04-06T13:20:25;4.70;;;4.30;;
2618;SDS011;1319;52.346;13.096;2023-04-06T13:22:50;6.15;;;4.35;;
2618;SDS011;1319;52.346;13.096;2023-04-06T13:25:15;4.90;;;4.40;;
2618;SDS011;1319;52.346;13.096;2023-04-06T13:27:41;5.15;;;4.75;;
2618;SDS011;1319;52.346;13.096;2023-04-06T13:30:06;6.40;;;4.65;;
2618;SDS011;1319;52.346;13.096;2023-04-06T13:32:32;4.70;;;4.30;;
2618;SDS011;1319;52.346;13.096;2023-04-06T13:34:57;5.75;;;4.70;;
2618;SDS011;1319;52.346;13.096;2023-04-06T13:37:23;5.50;;;5.00;;
2618;SDS011;1319;52.346;13.096;2023-04-06T13:39:48;6.55;;;4.90;;
2618;SDS011;1319;52.346;13.096;2023-04-06T13:42:13;5.80;;;4.47;;
2618;SDS011;1319;52.346;13.096;2023-04-06T13:44:39;4.78;;;4.38;;
2618;SDS011;1319;52.346;13.096;2023-04-06T13:47:04;8.05;;;4.30;;
2618;SDS011;1319;52.346;13.096;2023-04-06T13:49:29;7.97;;;4.40;;
2618;SDS011;1319;52.346;13.096;2023-04-06T13:51:55;4.93;;;4.43;;
2618;SDS011;1319;52.346;13.096;2023-04-06T13:54:20;4.57;;;4.20;;
2618;SDS011;1319;52.346;13.096;2023-04-06T13:56:45;4.47;;;3.95;;
2618;SDS011;1319;52.346;13.096;2023-04-06T13:59:10;4.68;;;4.28;;
2618;SDS011;1319;52.346;13.096;2023-04-06T14:01:36;4.97;;;4.00;;
2618;SDS011;1319;52.346;13.096;2023-04-06T14:04:01;4.25;;;3.85;;
2618;SDS011;1319;52.346;13.096;2023-04-06T14:06:27;4.18;;;3.78;;
2618;SDS011;1319;52.346;13.096;2023-04-06T14:08:52;4.18;;;3.88;;
2618;SDS011;1319;52.346;13.096;2023-04-06T14:11:17;3.75;;;3.45;;
2618;SDS011;1319;52.346;13.096;2023-04-06T14:13:42;4.30;;;3.30;;
2618;SDS011;1319;52.346;13.096;2023-04-06T14:16:07;3.60;;;3.20;;
2618;SDS011;1319;52.346;13.096;2023-04-06T14:18:33;3.42;;;3.20;;
2618;SDS011;1319;52.346;13.096;2023-04-06T14:20:59;4.35;;;3.17;;
2618;SDS011;1319;52.346;13.096;2023-04-06T14:23:24;5.38;;;3.40;;
2618;SDS011;1319;52.346;13.096;2023-04-06T14:26:02;5.13;;;3.55;;
2618;SDS011;1319;52.346;13.096;2023-04-06T14:28:28;3.83;;;3.35;;
2618;SDS011;1319;52.346;13.096;2023-04-06T14:30:53;4.07;;;3.65;;
2618;SDS011;1319;52.346;13.096;2023-04-06T14:33:19;6.20;;;4.80;;
2618;SDS011;1319;52.346;13.096;2023-04-06T14:35:44;4.88;;;3.35;;
2618;SDS011;1319;52.346;13.096;2023-04-06T14:38:09;4.45;;;3.50;;
2618;SDS011;1319;52.346;13.096;2023-04-06T14:40:35;4.43;;;3.38;;
2618;SDS011;1319;52.346;13.096;2023-04-06T14:43:01;3.22;;;2.92;;
2618;SDS011;1319;52.346;13.096;2023-04-06T14:45:26;4.10;;;3.40;;
2618;SDS011;1319;52.346;13.096;2023-04-06T14:47:51;4.20;;;3.25;;
2618;SDS011;1319;52.346;13.096;2023-04-06T14:50:16;4.00;;;3.30;;